Time;durP1;ratioP1;P1;durP2;ratioP2;P2;SDS_P1;SDS_P2;PMS_P1;PMS_P2;Temp;Humidity;BMP_temperature;BMP_pressure;BME280_temperature;BME280_humidity;BME280_pressure;Samples;Min_cycle;Max_cycle;Signal;HPM_P1;HPM_P2
2023/08/30 00:00:13;;;;;;;16.98;13.60;;;14.80;99.90;;;;;;5062488;28;20037;-92
2023/08/30 00:02:39;;;;;;;17.23;12.57;;;14.80;99.90;;;;;;5065458;28;20068;-93
2023/08/30 00:05:05;;;;;;;16.58;13.73;;;14.80;99.90;;;;;;5058814;28;20147;-91
2023/08/30 00:07:31;;;;;;;22.08;15.90;;;14.70;99.90;;;;;;5067642;28;20086;-92
2023/08/30 00:09:58;;;;;;;13.75;10.52;;;14.70;99.90;;;;;;5057907;28;20048;-93
2023/08/30 00:12:24;;;;;;;15.63;12.82;;;14.70;99.90;;;;;;5055415;28;20109;-92
2023/08/30 00:14:50;;;;;;;16.70;14.25;;;14.70;99.90;;;;;;5062955;28;20036;-92
2023/08/30 00:17:19;;;;;;;18.95;14.60;;;14.70;99.90;;;;;;5065114;28;20044;-92
2023/08/30 00:19:46;;;;;;;16.55;13.00;;;14.60;99.90;;;;;;5065486;28;20040;-91
2023/08/30 00:22:12;;;;;;;19.63;14.98;;;14.60;99.90;;;;;;5046592;28;20499;-92
2023/08/30 00:24:38;;;;;;;17.40;14.68;;;14.50;99.90;;;;;;5071397;28;20032;-92
2023/08/30 00:27:04;;;;;;;16.35;13.88;;;14.50;99.90;;;;;;5061810;28;20055;-91
2023/08/30 00:29:30;;;;;;;19.27;15.73;;;14.40;99.90;;;;;;5057796;28;20055;-92
2023/08/30 00:31:56;;;;;;;18.75;14.52;;;14.40;99.90;;;;;;5066399;28;20051;-91
2023/08/30 00:34:22;;;;;;;16.90;13.52;;;14.50;99.90;;;;;;5058789;28;20065;-91
2023/08/30 00:36:47;;;;;;;21.05;17.73;;;14.40;99.90;;;;;;5059607;28;20104;-92
2023/08/30 00:39:13;;;;;;;18.02;15.45;;;14.40;99.90;;;;;;5066465;28;20098;-91
2023/08/30 00:41:39;;;;;;;19.85;15.80;;;14.40;99.90;;;;;;5065255;28;20048;-91
2023/08/30 00:44:05;;;;;;;18.40;14.00;;;14.30;99.90;;;;;;5070383;28;20044;-90
2023/08/30 00:46:33;;;;;;;23.27;17.55;;;14.20;99.90;;;;;;5079491;28;20043;-91
2023/08/30 00:49:03;;;;;;;20.30;16.75;;;14.30;99.90;;;;;;5073886;28;20040;-91
2023/08/30 00:51:29;;;;;;;18.08;15.23;;;14.20;99.90;;;;;;5072248;28;20039;-91
2023/08/30 00:53:55;;;;;;;18.58;15.10;;;14.20;99.90;;;;;;5080631;28;20090;-92
2023/08/30 00:56:21;;;;;;;19.17;15.90;;;14.20;99.90;;;;;;5088144;28;20048;-91
2023/08/30 00:58:50;;;;;;;18.75;14.60;;;14.20;99.90;;;;;;5086145;28;20033;-92
2023/08/30 01:01:18;;;;;;;17.63;14.30;;;14.30;99.90;;;;;;5073641;28;20046;-92
2023/08/30 01:03:44;;;;;;;19.70;16.30;;;14.20;99.90;;;;;;5083010;28;20029;-92
2023/08/30 01:06:09;;;;;;;20.25;17.23;;;14.20;99.90;;;;;;5092730;28;20035;-92
2023/08/30 01:08:37;;;;;;;23.23;17.88;;;14.20;99.90;;;;;;5080607;28;20427;-91
2023/08/30 01:11:29;;;;;;;19.33;15.70;;;14.10;99.90;;;;;;5048068;28;20112;-91
2023/08/30 01:14:08;;;;;;;26.50;18.33;;;14.10;99.90;;;;;;5072001;28;20676;-91
2023/08/30 01:16:36;;;;;;;21.95;17.17;;;14.10;99.90;;;;;;5062936;28;20517;-90
2023/08/30 01:19:15;;;;;;;19.60;13.77;;;14.00;99.90;;;;;;5061223;28;20041;-91
2023/08/30 01:21:50;;;;;;;23.95;17.50;;;14.00;99.90;;;;;;5098077;28;20071;-92
2023/08/30 01:24:29;;;;;;;22.17;16.23;;;14.00;99.90;;;;;;5065758;28;20087;-91
2023/08/30 01:27:11;;;;;;;19.08;15.70;;;14.00;99.90;;;;;;5063159;28;20037;-92
2023/08/30 01:29:43;;;;;;;19.80;16.30;;;14.00;99.90;;;;;;5058419;28;20032;-91
2023/08/30 01:32:09;;;;;;;20.98;16.13;;;14.00;99.90;;;;;;5058816;28;20045;-91
2023/08/30 01:34:38;;;;;;;19.42;15.70;;;14.00;99.90;;;;;;5060759;28;20032;-92
2023/08/30 01:37:08;;;;;;;19.33;15.90;;;13.90;99.90;;;;;;5091086;28;20055;-91
2023/08/30 01:39:36;;;;;;;22.08;17.88;;;13.90;99.90;;;;;;5068720;28;20431;-91
2023/08/30 01:42:03;;;;;;;17.70;14.20;;;14.30;99.90;;;;;;5061227;28;20049;-91
2023/08/30 01:44:30;;;;;;;16.63;12.05;;;13.90;99.90;;;;;;5050160;28;20369;-92
2023/08/30 01:47:00;;;;;;;23.33;18.58;;;13.90;99.90;;;;;;5063699;28;20032;-91
2023/08/30 01:49:33;;;;;;;21.13;15.88;;;13.90;99.90;;;;;;5066302;28;20086;-90
2023/08/30 01:51:59;;;;;;;18.05;13.88;;;13.90;99.90;;;;;;5069354;28;20048;-91
2023/08/30 01:54:26;;;;;;;17.55;13.60;;;13.90;99.90;;;;;;5053269;28;20040;-92
2023/08/30 01:56:52;;;;;;;18.95;14.75;;;13.90;99.90;;;;;;5092146;28;20056;-90
2023/08/30 01:59:18;;;;;;;17.27;14.07;;;13.90;99.90;;;;;;5071590;28;20037;-92
2023/08/30 02:01:44;;;;;;;23.45;15.27;;;14.00;99.90;;;;;;5051148;28;20063;-91
2023/08/30 02:04:09;;;;;;;17.77;14.95;;;13.90;99.90;;;;;;5066662;28;20401;-92
2023/08/30 02:07:03;;;;;;;23.98;17.35;;;14.00;99.90;;;;;;5057251;28;20522;-91
2023/08/30 02:09:45;;;;;;;19.25;15.43;;;13.90;99.90;;;;;;5065693;28;20032;-91
2023/08/30 02:12:15;;;;;;;16.83;12.52;;;13.90;99.90;;;;;;5058472;28;20064;-90
2023/08/30 02:14:47;;;;;;;22.00;16.45;;;13.80;99.90;;;;;;5038928;28;20037;-91
2023/08/30 02:17:14;;;;;;;22.17;15.57;;;13.90;99.90;;;;;;5055201;28;20033;-90
2023/08/30 02:19:41;;;;;;;21.02;15.60;;;13.80;99.90;;;;;;5060827;28;20032;-91
2023/08/30 02:22:07;;;;;;;17.38;14.05;;;13.80;99.90;;;;;;5064124;28;20044;-91
2023/08/30 02:24:32;;;;;;;17.52;12.82;;;13.80;99.90;;;;;;5061547;28;20041;-90
2023/08/30 02:26:58;;;;;;;16.92;12.32;;;13.70;99.90;;;;;;5056917;28;20040;-91
2023/08/30 02:29:24;;;;;;;21.58;15.50;;;13.70;99.90;;;;;;5055909;28;20111;-91
2023/08/30 02:31:49;;;;;;;18.00;14.20;;;13.70;99.90;;;;;;5058322;28;20041;-91
2023/08/30 02:34:15;;;;;;;16.48;12.73;;;13.70;99.90;;;;;;5051229;28;20036;-90
2023/08/30 02:36:41;;;;;;;17.17;13.77;;;13.70;99.90;;;;;;5057628;28;20037;-90
2023/08/30 02:39:07;;;;;;;18.73;14.52;;;13.60;99.90;;;;;;5056497;28;20136;-90
2023/08/30 02:41:32;;;;;;;18.52;14.25;;;13.60;99.90;;;;;;5059943;28;20148;-91
2023/08/30 02:43:58;;;;;;;18.40;14.30;;;13.60;99.90;;;;;;5064518;28;20079;-90
2023/08/30 02:46:24;;;;;;;19.23;13.52;;;13.60;99.90;;;;;;5064717;28;20302;-91
2023/08/30 02:48:49;;;;;;;19.05;15.70;;;13.60;99.90;;;;;;5061133;28;20029;-90
2023/08/30 02:51:15;;;;;;;17.23;13.13;;;13.50;99.90;;;;;;5045222;28;20032;-90
2023/08/30 02:53:41;;;;;;;19.83;14.57;;;13.50;99.90;;;;;;5057780;28;20079;-91
2023/08/30 02:56:07;;;;;;;16.25;12.48;;;13.40;99.90;;;;;;5060981;28;20044;-91
2023/08/30 02:58:32;;;;;;;17.45;13.00;;;13.50;99.90;;;;;;5049721;28;20028;-90
2023/08/30 03:00:58;;;;;;;16.63;12.70;;;13.50;99.90;;;;;;5055105;28;20037;-91
2023/08/30 03:03:23;;;;;;;16.58;12.63;;;13.40;99.90;;;;;;5061180;28;20376;-90
2023/08/30 03:05:49;;;;;;;19.02;14.75;;;13.60;99.90;;;;;;5052464;28;20052;-91
2023/08/30 03:08:15;;;;;;;19.75;14.82;;;13.40;99.90;;;;;;5059206;28;20045;-90
2023/08/30 03:10:40;;;;;;;17.67;14.25;;;13.40;99.90;;;;;;5059626;28;20036;-90
2023/08/30 03:13:06;;;;;;;16.27;12.30;;;13.60;99.90;;;;;;5077107;28;20041;-89
2023/08/30 03:15:33;;;;;;;15.93;12.68;;;13.40;99.90;;;;;;5056170;28;20083;-90
2023/08/30 03:18:00;;;;;;;16.92;13.48;;;13.50;99.90;;;;;;5057717;28;20149;-90
2023/08/30 03:20:28;;;;;;;18.85;13.50;;;13.40;99.90;;;;;;5061915;28;20032;-90
2023/08/30 03:22:56;;;;;;;16.02;12.43;;;13.30;99.90;;;;;;5060491;28;20037;-89
2023/08/30 03:25:21;;;;;;;15.70;10.27;;;13.30;99.90;;;;;;5064144;28;20175;-90
2023/08/30 03:27:47;;;;;;;15.50;12.13;;;13.30;99.90;;;;;;5047385;28;20124;-90
2023/08/30 03:30:13;;;;;;;16.52;12.82;;;13.30;99.90;;;;;;5054647;28;20041;-91
2023/08/30 03:32:39;;;;;;;17.42;12.50;;;13.30;99.90;;;;;;5065426;28;20493;-91
2023/08/30 03:35:05;;;;;;;14.65;11.45;;;13.30;99.90;;;;;;5071882;28;20087;-90
2023/08/30 03:37:31;;;;;;;16.10;12.95;;;13.30;99.90;;;;;;5056669;28;20113;-91
2023/08/30 03:39:57;;;;;;;18.77;13.18;;;13.30;99.90;;;;;;5060656;28;20033;-91
2023/08/30 03:42:22;;;;;;;15.55;11.07;;;13.30;99.90;;;;;;5079730;28;20418;-90
2023/08/30 03:44:48;;;;;;;17.55;12.88;;;13.20;99.90;;;;;;5063959;28;20048;-90
2023/08/30 03:47:14;;;;;;;16.27;13.13;;;13.20;99.90;;;;;;5060358;28;20045;-90
2023/08/30 03:49:39;;;;;;;16.40;12.98;;;13.10;99.90;;;;;;5069175;28;20036;-91
2023/08/30 03:52:05;;;;;;;15.05;11.98;;;13.10;99.90;;;;;;5059280;28;20071;-89
2023/08/30 03:54:31;;;;;;;13.73;10.43;;;13.00;99.90;;;;;;5071607;28;20744;-90
2023/08/30 03:56:57;;;;;;;18.20;12.25;;;13.00;99.90;;;;;;5069208;28;20032;-89
2023/08/30 03:59:25;;;;;;;17.15;12.88;;;13.00;99.90;;;;;;5058680;28;20052;-90
2023/08/30 04:01:50;;;;;;;19.85;13.68;;;13.00;99.90;;;;;;5060061;28;20068;-90
2023/08/30 04:04:17;;;;;;;14.88;11.43;;;13.00;99.90;;;;;;5060138;28;20093;-91
2023/08/30 04:06:42;;;;;;;17.40;13.65;;;12.90;99.90;;;;;;5072526;28;20044;-92
2023/08/30 04:09:08;;;;;;;15.63;12.63;;;12.90;99.90;;;;;;5062490;28;20037;-91
2023/08/30 04:11:34;;;;;;;17.08;12.65;;;12.90;99.90;;;;;;5045565;28;20036;-90
2023/08/30 04:13:59;;;;;;;15.65;11.15;;;12.80;99.90;;;;;;5066507;28;20036;-90
2023/08/30 04:16:25;;;;;;;16.27;11.15;;;12.90;99.90;;;;;;5061638;28;20159;-92
2023/08/30 04:18:51;;;;;;;18.65;14.25;;;12.80;99.90;;;;;;5047510;28;20172;-91
2023/08/30 04:21:16;;;;;;;16.70;13.57;;;12.80;99.90;;;;;;5066631;28;20037;-90
2023/08/30 04:23:42;;;;;;;17.58;13.05;;;12.80;99.90;;;;;;5063001;28;20052;-91
2023/08/30 04:26:08;;;;;;;15.82;11.63;;;12.80;99.90;;;;;;5049258;28;20043;-90
2023/08/30 04:28:33;;;;;;;16.70;13.68;;;12.80;99.90;;;;;;5063494;28;20115;-90
2023/08/30 04:30:59;;;;;;;14.73;11.35;;;12.70;99.90;;;;;;5062979;28;20045;-90
2023/08/30 04:33:25;;;;;;;15.75;11.95;;;12.70;99.90;;;;;;5074123;28;20051;-91
2023/08/30 04:35:52;;;;;;;15.65;11.40;;;12.70;99.90;;;;;;5066799;28;20028;-90
2023/08/30 04:38:18;;;;;;;17.95;11.57;;;12.70;99.90;;;;;;5057793;28;20037;-91
2023/08/30 04:40:43;;;;;;;16.83;12.07;;;12.70;99.90;;;;;;5036749;28;20628;-90
2023/08/30 04:43:09;;;;;;;15.52;11.93;;;12.70;99.90;;;;;;5055536;28;20041;-91
2023/08/30 04:45:35;;;;;;;18.70;14.27;;;12.70;99.90;;;;;;5065679;28;20055;-91
2023/08/30 04:48:01;;;;;;;18.30;12.75;;;12.70;99.90;;;;;;5050069;28;20055;-90
2023/08/30 04:50:27;;;;;;;18.77;13.63;;;12.70;99.90;;;;;;5068103;28;20665;-91
2023/08/30 04:52:53;;;;;;;18.70;12.95;;;12.60;99.90;;;;;;5063772;28;20052;-90
2023/08/30 04:55:18;;;;;;;20.48;14.35;;;12.60;99.90;;;;;;5066096;28;20048;-89
2023/08/30 04:57:44;;;;;;;18.80;13.38;;;12.60;99.90;;;;;;5061048;28;20036;-90
2023/08/30 05:00:12;;;;;;;18.70;12.90;;;12.60;99.90;;;;;;5058946;28;20037;-90
2023/08/30 05:02:38;;;;;;;17.98;13.65;;;12.60;99.90;;;;;;5073921;28;20123;-90
2023/08/30 05:05:04;;;;;;;19.13;14.45;;;12.60;99.90;;;;;;5061173;28;20080;-89
2023/08/30 05:07:29;;;;;;;16.85;12.02;;;12.60;99.90;;;;;;5040864;28;20108;-90
2023/08/30 05:09:55;;;;;;;14.15;11.60;;;12.60;99.90;;;;;;5059063;28;20125;-89
2023/08/30 05:12:21;;;;;;;16.80;11.60;;;12.50;99.90;;;;;;5062882;28;20051;-89
2023/08/30 05:14:46;;;;;;;20.10;14.13;;;12.60;99.90;;;;;;5064239;28;20045;-90
2023/08/30 05:17:13;;;;;;;18.23;12.65;;;12.60;99.90;;;;;;5047173;28;20047;-90
2023/08/30 05:19:39;;;;;;;19.05;14.40;;;12.50;99.90;;;;;;5064015;28;20582;-90
2023/08/30 05:22:05;;;;;;;16.73;12.68;;;12.60;99.90;;;;;;5059751;28;20040;-89
2023/08/30 05:24:30;;;;;;;17.35;13.10;;;12.60;99.90;;;;;;5064087;28;20562;-90
2023/08/30 05:26:57;;;;;;;15.25;12.57;;;12.60;99.90;;;;;;5067700;28;20102;-91
2023/08/30 05:29:23;;;;;;;21.23;12.93;;;12.70;99.90;;;;;;5071888;28;20449;-92
2023/08/30 05:31:48;;;;;;;18.63;14.00;;;12.70;99.90;;;;;;5055396;28;20048;-90
2023/08/30 05:34:14;;;;;;;17.98;13.82;;;12.70;99.90;;;;;;5054186;28;20455;-89
2023/08/30 05:36:41;;;;;;;20.02;13.10;;;12.70;99.90;;;;;;5062838;28;20060;-88
2023/08/30 05:39:07;;;;;;;16.70;11.50;;;12.70;99.90;;;;;;5057818;28;20037;-88
2023/08/30 05:41:32;;;;;;;17.05;12.60;;;12.70;99.90;;;;;;5049763;28;20048;-89
2023/08/30 05:43:58;;;;;;;18.77;13.95;;;13.10;99.90;;;;;;5057105;28;20064;-88
2023/08/30 05:46:24;;;;;;;16.30;12.55;;;12.80;99.90;;;;;;5060109;28;20067;-88
2023/08/30 05:48:50;;;;;;;17.00;12.32;;;12.80;99.90;;;;;;5060992;28;20034;-89
2023/08/30 05:51:16;;;;;;;18.88;12.90;;;12.80;99.90;;;;;;5053800;28;20438;-89
2023/08/30 05:53:41;;;;;;;19.98;13.25;;;12.80;99.90;;;;;;5065807;28;20041;-89
2023/08/30 05:56:07;;;;;;;15.82;11.95;;;12.90;99.90;;;;;;5062644;28;20033;-90
2023/08/30 05:58:33;;;;;;;18.73;13.25;;;12.90;99.90;;;;;;5055343;28;20086;-89
2023/08/30 06:01:00;;;;;;;18.02;11.85;;;12.90;99.90;;;;;;5056415;28;20521;-89
2023/08/30 06:03:26;;;;;;;15.95;11.68;;;12.90;99.90;;;;;;5064432;28;20049;-90
2023/08/30 06:05:53;;;;;;;17.33;12.30;;;13.30;99.90;;;;;;5044923;28;20061;-88
2023/08/30 06:08:19;;;;;;;17.13;11.40;;;13.00;99.90;;;;;;5037643;28;20047;-89
2023/08/30 06:10:45;;;;;;;17.92;12.30;;;13.10;99.90;;;;;;5048623;28;20085;-89
2023/08/30 06:13:10;;;;;;;13.65;11.02;;;13.20;99.90;;;;;;5050902;28;20040;-89
2023/08/30 06:15:37;;;;;;;18.70;11.65;;;13.50;99.90;;;;;;5053259;28;20193;-88
2023/08/30 06:18:06;;;;;;;18.75;11.88;;;13.10;99.90;;;;;;5049882;28;20037;-87
2023/08/30 06:20:32;;;;;;;14.73;10.70;;;13.50;99.90;;;;;;5041549;28;20122;-85
2023/08/30 06:31:42;;;;;;;15.15;11.05;;;13.20;99.90;;;;;;1350444;23;21294;-89
2023/08/30 06:35:13;;;;;;;16.45;11.65;;;13.50;99.90;;;;;;4971166;22;20137;-90
2023/08/30 06:37:40;;;;;;;18.88;11.82;;;13.60;99.90;;;;;;4980434;28;20607;-88
2023/08/30 06:40:07;;;;;;;15.70;10.50;;;13.60;99.90;;;;;;4985802;28;20039;-88
2023/08/30 06:42:32;;;;;;;16.33;11.23;;;13.70;99.90;;;;;;4966229;28;20042;-89
2023/08/30 06:44:58;;;;;;;16.98;10.88;;;13.80;99.90;;;;;;4984760;28;20593;-88
2023/08/30 06:47:23;;;;;;;14.43;10.27;;;13.80;99.90;;;;;;4977387;28;20046;-89
2023/08/30 06:49:49;;;;;;;18.33;11.40;;;13.90;99.90;;;;;;4978090;28;20039;-88
2023/08/30 06:52:15;;;;;;;14.35;9.75;;;13.90;99.90;;;;;;4961453;28;20101;-88
2023/08/30 06:54:40;;;;;;;14.82;10.32;;;14.00;99.90;;;;;;4976723;28;20038;-88
2023/08/30 06:57:06;;;;;;;14.98;10.48;;;14.00;99.90;;;;;;4960710;28;20050;-88
2023/08/30 06:59:32;;;;;;;16.35;11.43;;;14.00;99.90;;;;;;4982835;28;20477;-87
2023/08/30 07:01:58;;;;;;;16.33;9.85;;;14.00;99.90;;;;;;4983552;28;20097;-89
2023/08/30 07:04:26;;;;;;;14.77;10.18;;;14.00;99.90;;;;;;4982748;28;20545;-89
2023/08/30 07:06:52;;;;;;;14.63;10.27;;;14.00;99.90;;;;;;4979323;28;20121;-89
2023/08/30 07:09:18;;;;;;;16.05;10.88;;;14.00;99.90;;;;;;4965015;28;20746;-89
2023/08/30 07:11:44;;;;;;;16.17;10.98;;;14.10;99.90;;;;;;4983759;28;20041;-84
2023/08/30 07:14:11;;;;;;;14.95;10.43;;;14.10;99.90;;;;;;4970184;28;20110;-87
2023/08/30 07:16:36;;;;;;;15.52;11.25;;;14.50;99.90;;;;;;4978483;28;20050;-87
2023/08/30 07:19:02;;;;;;;16.80;11.07;;;14.10;99.90;;;;;;4963089;28;20413;-86
2023/08/30 07:21:28;;;;;;;16.08;11.07;;;14.20;99.90;;;;;;4977742;28;20093;-86
2023/08/30 07:23:54;;;;;;;17.77;11.02;;;14.20;99.90;;;;;;4988164;28;20034;-87
2023/08/30 07:26:19;;;;;;;18.58;11.10;;;14.30;99.90;;;;;;4982512;28;20124;-87
2023/08/30 07:28:46;;;;;;;15.73;10.02;;;14.30;99.90;;;;;;4987475;28;20033;-87
2023/08/30 07:31:15;;;;;;;15.50;10.80;;;14.40;99.90;;;;;;4975425;28;20035;-87
2023/08/30 07:33:41;;;;;;;14.77;10.07;;;14.40;99.90;;;;;;4983779;28;20073;-86
2023/08/30 07:36:08;;;;;;;15.52;10.90;;;14.50;99.90;;;;;;4984118;28;20120;-88
2023/08/30 07:38:34;;;;;;;17.67;10.88;;;14.50;99.90;;;;;;4968793;28;20046;-86
2023/08/30 07:41:01;;;;;;;15.65;10.45;;;14.50;99.90;;;;;;4972894;28;20159;-86
2023/08/30 07:43:26;;;;;;;15.23;10.43;;;14.60;99.90;;;;;;4981375;28;20053;-88
2023/08/30 07:45:52;;;;;;;16.35;10.45;;;14.70;99.90;;;;;;4972425;28;20125;-87
2023/08/30 07:48:17;;;;;;;14.43;9.57;;;14.70;99.90;;;;;;4986791;28;20039;-87
2023/08/30 07:50:43;;;;;;;15.02;10.50;;;14.80;99.90;;;;;;4986693;28;20448;-87
2023/08/30 07:53:10;;;;;;;12.93;8.80;;;14.80;99.90;;;;;;4995476;28;20113;-87
2023/08/30 07:55:36;;;;;;;19.85;11.07;;;14.90;99.90;;;;;;4984071;28;20034;-87
2023/08/30 07:58:03;;;;;;;15.65;10.15;;;15.00;99.90;;;;;;4982682;28;20039;-86
2023/08/30 08:00:29;;;;;;;16.67;9.60;;;15.10;99.90;;;;;;4985728;28;20034;-87
2023/08/30 08:02:55;;;;;;;14.43;9.35;;;15.20;99.90;;;;;;4965805;28;20047;-87
2023/08/30 08:05:20;;;;;;;14.15;9.57;;;15.20;99.90;;;;;;4968424;28;20116;-88
2023/08/30 08:07:51;;;;;;;13.98;9.45;;;15.20;99.90;;;;;;4982808;28;20456;-88
2023/08/30 08:10:17;;;;;;;13.20;9.43;;;15.30;99.90;;;;;;4986777;28;20035;-88
2023/08/30 08:12:42;;;;;;;15.27;9.65;;;15.30;99.90;;;;;;4980639;28;20093;-87
2023/08/30 08:15:08;;;;;;;12.95;8.77;;;15.30;99.90;;;;;;4984318;28;20075;-87
2023/08/30 08:17:34;;;;;;;15.82;10.27;;;15.40;99.90;;;;;;4980360;28;20047;-87
2023/08/30 08:20:00;;;;;;;14.02;9.40;;;15.50;99.90;;;;;;4995424;28;20042;-87
2023/08/30 08:22:26;;;;;;;12.40;8.48;;;15.60;99.90;;;;;;4976886;28;20045;-86
2023/08/30 08:24:53;;;;;;;15.57;10.95;;;15.60;99.90;;;;;;4980297;28;20045;-86
2023/08/30 08:27:19;;;;;;;16.50;9.25;;;15.80;99.90;;;;;;4987497;28;20037;-88
2023/08/30 08:29:44;;;;;;;15.40;10.80;;;15.80;99.90;;;;;;4980317;28;20038;-86
2023/08/30 08:32:13;;;;;;;16.38;10.32;;;16.00;99.90;;;;;;4962929;28;20438;-83
2023/08/30 08:34:39;;;;;;;14.00;9.75;;;15.90;99.90;;;;;;4985798;28;20519;-89
2023/08/30 08:37:06;;;;;;;16.52;10.38;;;16.00;99.90;;;;;;4984034;28;20050;-87
2023/08/30 08:39:32;;;;;;;15.77;10.60;;;16.00;99.90;;;;;;4972629;28;20050;-86
2023/08/30 08:41:59;;;;;;;15.85;10.10;;;16.00;99.90;;;;;;4976930;28;20049;-85
2023/08/30 08:44:28;;;;;;;15.40;10.48;;;16.00;99.90;;;;;;4986129;28;20030;-86
2023/08/30 08:46:54;;;;;;;13.70;9.35;;;16.10;99.90;;;;;;4980778;28;20486;-87
2023/08/30 08:49:20;;;;;;;19.52;10.98;;;16.20;99.90;;;;;;4986736;28;20154;-87
2023/08/30 08:51:46;;;;;;;17.88;10.00;;;16.20;99.90;;;;;;4984925;28;20456;-87
2023/08/30 08:54:13;;;;;;;17.67;11.07;;;16.20;99.90;;;;;;4988925;28;20045;-87
2023/08/30 08:56:40;;;;;;;16.48;10.35;;;16.30;99.90;;;;;;4988981;28;20062;-86
2023/08/30 08:59:07;;;;;;;16.35;9.85;;;16.40;99.90;;;;;;4977952;28;20482;-87
2023/08/30 09:01:39;;;;;;;36.22;19.05;;;16.40;99.90;;;;;;4979083;28;20074;-87
2023/08/30 09:04:10;;;;;;;15.88;9.82;;;16.40;99.90;;;;;;4978193;28;20054;-87
2023/08/30 09:06:36;;;;;;;14.25;9.45;;;16.50;99.90;;;;;;4977182;28;20186;-87
2023/08/30 09:09:04;;;;;;;14.30;9.43;;;16.50;99.90;;;;;;4982671;28;20042;-87
2023/08/30 09:11:29;;;;;;;15.68;9.65;;;16.50;99.90;;;;;;4985380;28;20321;-88
2023/08/30 09:13:55;;;;;;;15.18;9.63;;;16.50;99.90;;;;;;4986719;28;20049;-87
2023/08/30 09:16:21;;;;;;;14.40;9.30;;;16.50;99.90;;;;;;4985068;28;20370;-87
2023/08/30 09:19:02;;;;;;;16.73;9.23;;;16.50;99.90;;;;;;4980643;28;20034;-87
2023/08/30 09:21:29;;;;;;;21.83;9.90;;;16.50;99.90;;;;;;4988242;28;20071;-88
2023/08/30 09:24:03;;;;;;;16.95;9.38;;;16.50;99.90;;;;;;4965352;28;20043;-87
2023/08/30 09:26:31;;;;;;;14.10;9.07;;;16.40;99.90;;;;;;4968478;28;20866;-89
2023/08/30 09:29:04;;;;;;;14.20;9.57;;;16.40;99.90;;;;;;4979522;28;20038;-87
2023/08/30 09:31:38;;;;;;;12.98;9.30;;;16.30;99.90;;;;;;4983758;28;20097;-90
2023/08/30 09:34:07;;;;;;;14.47;8.73;;;16.30;99.90;;;;;;4982056;28;20085;-89
2023/08/30 09:36:34;;;;;;;14.80;7.97;;;16.30;99.90;;;;;;4980783;28;20399;-86
2023/08/30 09:39:09;;;;;;;14.63;8.52;;;16.30;99.90;;;;;;4980101;28;20122;-90
2023/08/30 09:41:36;;;;;;;13.38;8.65;;;16.30;99.90;;;;;;4986028;28;20039;-89
2023/08/30 09:44:14;;;;;;;11.85;8.00;;;16.20;99.90;;;;;;4986801;28;20471;-89
2023/08/30 09:47:02;;;;;;;16.13;8.07;;;16.10;99.90;;;;;;4986611;28;20068;-88
2023/08/30 09:49:30;;;;;;;13.48;8.13;;;16.00;99.90;;;;;;4969221;28;20104;-90
2023/08/30 09:51:59;;;;;;;13.10;8.10;;;15.90;99.90;;;;;;4980701;28;20586;-90
2023/08/30 09:54:26;;;;;;;13.40;9.02;;;15.90;99.90;;;;;;4991848;28;20045;-89
2023/08/30 09:56:56;;;;;;;15.15;8.60;;;15.90;99.90;;;;;;4981573;28;20039;-88
2023/08/30 09:59:22;;;;;;;13.20;8.77;;;15.90;99.90;;;;;;4988106;28;20119;-89
2023/08/30 10:01:48;;;;;;;12.43;8.32;;;15.80;99.90;;;;;;4981597;28;20042;-90
2023/08/30 10:04:15;;;;;;;16.25;9.73;;;15.70;99.90;;;;;;4982044;28;20035;-88
2023/08/30 10:06:40;;;;;;;13.27;9.18;;;15.70;99.90;;;;;;4980475;28;20038;-87
2023/08/30 10:09:08;;;;;;;15.95;9.13;;;15.70;99.90;;;;;;4984073;28;20141;-88
2023/08/30 10:11:36;;;;;;;14.85;8.63;;;15.70;99.90;;;;;;4979764;28;20045;-89
2023/08/30 10:14:06;;;;;;;14.15;9.07;;;15.80;99.90;;;;;;4986412;28;20038;-88
2023/08/30 10:16:45;;;;;;;17.02;9.23;;;15.80;99.90;;;;;;4980286;28;20026;-87
2023/08/30 10:19:17;;;;;;;14.30;10.02;;;15.80;99.90;;;;;;4983139;28;20090;-91
2023/08/30 10:21:53;;;;;;;15.43;10.25;;;16.00;99.90;;;;;;4990085;28;20096;-90
2023/08/30 10:24:21;;;;;;;14.40;9.52;;;16.10;99.90;;;;;;4980804;28;20054;-86
2023/08/30 10:26:47;;;;;;;15.20;10.82;;;16.30;99.90;;;;;;4983088;28;20078;-86
2023/08/30 10:29:16;;;;;;;15.93;10.18;;;16.40;99.90;;;;;;4982414;28;20034;-87
2023/08/30 10:31:42;;;;;;;12.70;8.38;;;16.60;99.90;;;;;;4975632;28;20123;-87
2023/08/30 10:34:18;;;;;;;11.85;8.73;;;16.70;99.90;;;;;;4981693;28;20472;-86
2023/08/30 10:36:44;;;;;;;10.73;7.45;;;16.70;99.90;;;;;;4967242;28;20129;-80
2023/08/30 10:39:14;;;;;;;10.43;5.68;;;16.70;99.90;;;;;;4994222;28;20128;-79
2023/08/30 10:41:56;;;;;;;10.43;5.93;;;16.70;99.90;;;;;;4978362;28;20034;-78
2023/08/30 10:44:22;;;;;;;8.77;5.78;;;16.70;99.90;;;;;;4979768;28;20125;-78
2023/08/30 10:46:53;;;;;;;9.05;5.10;;;16.70;99.90;;;;;;4977565;28;20042;-78
2023/08/30 10:49:19;;;;;;;9.02;5.50;;;16.70;99.90;;;;;;4974527;28;20042;-78
2023/08/30 10:51:47;;;;;;;9.27;5.63;;;16.70;99.90;;;;;;4983016;28;20125;-79
2023/08/30 10:54:16;;;;;;;8.32;5.28;;;16.80;99.90;;;;;;4974181;28;20091;-78
2023/08/30 10:56:52;;;;;;;10.68;6.70;;;16.90;99.90;;;;;;4966197;28;20038;-77
2023/08/30 10:59:21;;;;;;;9.63;6.93;;;17.00;99.90;;;;;;4980064;28;20039;-78
2023/08/30 11:01:49;;;;;;;11.13;6.85;;;17.00;99.90;;;;;;4984844;28;20038;-78
2023/08/30 11:04:18;;;;;;;9.50;6.60;;;17.00;99.90;;;;;;4976244;28;20045;-79
2023/08/30 11:06:46;;;;;;;12.88;7.20;;;16.90;99.90;;;;;;4981355;28;20047;-78
2023/08/30 11:09:19;;;;;;;11.13;6.93;;;16.80;99.90;;;;;;4976399;28;20043;-79
2023/08/30 11:11:46;;;;;;;11.20;7.72;;;16.80;99.90;;;;;;4982056;28;20047;-78
2023/08/30 11:14:13;;;;;;;11.05;7.95;;;16.70;99.90;;;;;;4978337;28;20074;-78
2023/08/30 11:16:39;;;;;;;10.38;6.65;;;16.70;99.90;;;;;;4988829;28;20053;-78
2023/08/30 11:19:07;;;;;;;9.95;6.03;;;16.70;99.90;;;;;;4980762;28;20046;-78
2023/08/30 11:21:34;;;;;;;9.13;5.68;;;16.60;99.90;;;;;;4975329;28;20475;-78
2023/08/30 11:24:00;;;;;;;9.88;7.20;;;16.60;99.90;;;;;;4974129;28;20528;-78
2023/08/30 11:26:26;;;;;;;9.57;6.07;;;16.60;99.90;;;;;;4973805;28;20046;-79
2023/08/30 11:28:52;;;;;;;8.65;5.63;;;16.60;99.90;;;;;;4979726;28;20043;-80
2023/08/30 11:31:28;;;;;;;9.18;6.53;;;16.50;99.90;;;;;;4975818;28;20323;-79
2023/08/30 11:33:58;;;;;;;11.02;7.47;;;16.50;99.90;;;;;;4985029;28;20125;-78
2023/08/30 11:36:29;;;;;;;11.90;7.65;;;16.50;99.90;;;;;;4989503;28;20039;-77
2023/08/30 11:38:55;;;;;;;12.75;7.97;;;16.50;99.90;;;;;;4986699;28;20166;-78
2023/08/30 11:41:21;;;;;;;14.45;8.77;;;16.40;99.90;;;;;;4975581;28;20042;-78
2023/08/30 11:43:51;;;;;;;12.73;8.45;;;16.40;99.90;;;;;;4993464;28;20045;-78
2023/08/30 11:46:18;;;;;;;11.52;8.48;;;16.30;99.90;;;;;;4975621;28;20058;-79
2023/08/30 11:48:45;;;;;;;12.70;9.13;;;16.30;99.90;;;;;;4986769;28;20074;-78
2023/08/30 11:51:11;;;;;;;13.65;9.55;;;16.20;99.90;;;;;;4978312;28;20047;-84
2023/08/30 11:53:38;;;;;;;13.88;9.88;;;16.20;99.90;;;;;;4980606;28;20049;-82
2023/08/30 11:56:08;;;;;;;13.13;10.05;;;16.10;99.90;;;;;;4977716;28;20595;-82
2023/08/30 11:58:34;;;;;;;12.52;9.60;;;16.10;99.90;;;;;;4974172;28;20109;-82
2023/08/30 12:01:01;;;;;;;13.18;10.90;;;16.00;99.90;;;;;;4961596;28;20038;-83
2023/08/30 12:03:31;;;;;;;14.68;9.65;;;16.00;99.90;;;;;;4978043;28;20093;-83
2023/08/30 12:05:57;;;;;;;16.25;10.65;;;16.00;99.90;;;;;;4971222;28;20065;-82
2023/08/30 12:08:28;;;;;;;14.88;10.65;;;16.00;99.90;;;;;;4988313;28;20038;-82
2023/08/30 12:10:55;;;;;;;15.75;10.98;;;15.90;99.90;;;;;;4975073;28;20121;-82
2023/08/30 12:13:28;;;;;;;15.23;9.82;;;15.90;99.90;;;;;;4970609;28;20038;-82
2023/08/30 12:15:56;;;;;;;14.73;10.00;;;15.80;99.90;;;;;;4985508;28;20042;-82
2023/08/30 12:18:27;;;;;;;14.13;10.20;;;15.80;99.90;;;;;;4986601;28;20096;-85
2023/08/30 12:21:03;;;;;;;14.02;10.40;;;15.70;99.90;;;;;;4973955;28;20062;-85
2023/08/30 12:23:31;;;;;;;15.10;10.43;;;15.70;99.90;;;;;;4990494;28;20099;-85
2023/08/30 12:25:58;;;;;;;13.80;9.73;;;15.70;99.90;;;;;;4988416;28;20038;-85
2023/08/30 12:28:25;;;;;;;11.30;9.27;;;15.70;99.90;;;;;;4996174;28;20485;-85
2023/08/30 12:30:51;;;;;;;13.30;9.57;;;15.70;99.90;;;;;;4983894;28;20094;-84
2023/08/30 12:33:17;;;;;;;15.63;10.95;;;15.60;99.90;;;;;;4982172;28;20045;-85
2023/08/30 12:35:44;;;;;;;13.20;9.80;;;15.70;99.90;;;;;;4975457;28;20309;-84
2023/08/30 12:38:11;;;;;;;11.55;8.70;;;15.70;99.90;;;;;;4987972;28;20133;-85
2023/08/30 12:40:37;;;;;;;12.20;9.00;;;15.70;99.90;;;;;;4972466;28;20065;-86